createdAt,value
2022-09-23T00:00:45.790Z,71.94
2022-09-23T00:03:50.254Z,71.43
2022-09-23T00:06:54.446Z,71.85
2022-09-23T00:09:57.194Z,72.02
2022-09-23T00:13:00.434Z,71.24
2022-09-23T00:16:05.116Z,71.21
2022-09-23T00:19:07.814Z,71.58
2022-09-23T00:22:12.275Z,71.77
2022-09-23T00:25:14.871Z,71.97
2022-09-23T00:28:17.826Z,71.48
2022-09-23T00:31:23.210Z,71.92
2022-09-23T00:34:26.105Z,72.62
2022-09-23T00:37:30.379Z,72.58
2022-09-23T00:40:33.364Z,71.50
2022-09-23T00:43:43.620Z,71.75
2022-09-23T00:46:46.415Z,71.55
2022-09-23T00:49:55.275Z,71.93
2022-09-23T00:53:01.767Z,71.39
2022-09-23T00:56:07.914Z,71.92
2022-09-23T00:59:11.716Z,71.77
2022-09-23T01:02:18.475Z,72.35
2022-09-23T01:05:24.469Z,72.22
2022-09-23T01:08:29.236Z,72.45
2022-09-23T01:11:41.184Z,71.76
2022-09-23T01:14:50.230Z,72.06
2022-09-23T01:18:00.854Z,72.74
2022-09-23T01:21:14.918Z,72.77
2022-09-23T01:24:46.342Z,72.00
2022-09-23T01:28:06.741Z,72.47
2022-09-23T01:31:17.480Z,71.91
2022-09-23T01:34:27.500Z,72.13
2022-09-23T01:37:37.648Z,72.03
2022-09-23T01:40:50.111Z,71.56
2022-09-23T01:44:01.789Z,71.94
2022-09-23T01:47:12.756Z,72.42
2022-09-23T01:50:37.864Z,71.99
2022-09-23T01:53:46.765Z,72.78
2022-09-23T01:56:56.203Z,71.83
2022-09-23T02:00:05.327Z,72.20
2022-09-23T02:03:15.690Z,72.31
2022-09-23T02:06:24.490Z,72.21
2022-09-23T02:09:32.742Z,72.08
2022-09-23T02:12:38.744Z,72.63
2022-09-23T02:15:47.287Z,72.89
2022-09-23T02:18:57.002Z,72.66
2022-09-23T02:22:10.430Z,73.01
2022-09-23T02:25:16.222Z,73.85
2022-09-23T02:28:32.452Z,73.04
2022-09-23T02:31:40.301Z,72.39
2022-09-23T02:34:48.053Z,73.01
2022-09-23T02:37:58.866Z,72.73
2022-09-23T02:41:09.392Z,72.65
2022-09-23T02:44:16.117Z,72.60
2022-09-23T02:47:25.882Z,72.78
2022-09-23T02:50:30.899Z,72.34
2022-09-23T02:53:34.534Z,72.95
2022-09-23T02:56:38.170Z,72.46
2022-09-23T02:59:40.981Z,72.70
2022-09-23T03:03:02.748Z,72.98
2022-09-23T03:06:17.393Z,72.88
2022-09-23T03:09:26.643Z,72.76
2022-09-23T03:12:41.903Z,72.79
2022-09-23T03:15:53.361Z,72.89
2022-09-23T03:19:02.887Z,73.12
2022-09-23T03:22:11.491Z,72.59
2022-09-23T03:25:19.229Z,72.26
2022-09-23T03:28:25.519Z,72.74
2022-09-23T03:31:28.291Z,73.01
2022-09-23T03:34:34.791Z,72.19
2022-09-23T03:37:44.699Z,72.52
2022-09-23T03:40:50.936Z,72.62
2022-09-23T03:43:53.961Z,72.82
2022-09-23T03:47:02.388Z,73.76
2022-09-23T03:50:05.728Z,74.01
2022-09-23T03:53:09.744Z,73.96
2022-09-23T03:56:12.310Z,73.38
2022-09-23T03:59:19.671Z,72.78
2022-09-23T04:02:22.363Z,72.92
2022-09-23T04:05:25.187Z,73.07
2022-09-23T04:08:29.136Z,72.50
2022-09-23T04:11:32.046Z,72.35
2022-09-23T04:14:34.791Z,72.66
2022-09-23T04:17:37.662Z,72.55
2022-09-23T04:20:40.335Z,72.31
2022-09-23T04:23:44.733Z,72.68
2022-09-23T04:26:47.311Z,72.48
2022-09-23T04:29:50.237Z,72.27
2022-09-23T04:32:53.357Z,72.27
2022-09-23T04:35:56.841Z,72.85
2022-09-23T04:39:00.792Z,73.08
2022-09-23T04:42:04.173Z,73.14
2022-09-23T04:45:07.614Z,73.18
2022-09-23T04:48:10.650Z,72.63
2022-09-23T04:51:15.415Z,72.64
2022-09-23T04:54:19.368Z,73.07
2022-09-23T04:57:21.929Z,72.93
2022-09-23T05:00:24.615Z,72.69
2022-09-23T05:03:27.255Z,72.69
2022-09-23T05:06:32.312Z,72.63
2022-09-23T05:09:36.328Z,72.74
2022-09-23T05:12:39.054Z,72.87
2022-09-23T05:15:41.588Z,73.57
2022-09-23T05:18:45.254Z,73.60
2022-09-23T05:21:47.974Z,72.83
2022-09-23T05:24:52.046Z,72.68
2022-09-23T05:27:54.614Z,73.46
2022-09-23T05:31:03.267Z,73.81
2022-09-23T05:34:06.905Z,73.67
2022-09-23T05:37:09.793Z,73.59
2022-09-23T05:40:13.855Z,73.91
2022-09-23T05:43:17.517Z,73.76
2022-09-23T05:46:23.274Z,73.32
2022-09-23T05:49:42.621Z,73.78
2022-09-23T05:52:48.721Z,74.04
2022-09-23T05:55:54.539Z,73.87
2022-09-23T05:58:58.946Z,72.06
2022-09-23T06:02:01.909Z,70.01
2022-09-23T06:05:04.803Z,69.18
2022-09-23T06:08:08.231Z,67.44
2022-09-23T06:11:12.504Z,66.50
2022-09-23T06:14:15.635Z,65.36
2022-09-23T06:17:18.304Z,64.31
2022-09-23T06:20:20.973Z,63.00
2022-09-23T06:23:26.103Z,62.71
2022-09-23T06:26:33.739Z,63.18
2022-09-23T06:29:36.933Z,61.76
2022-09-23T06:32:39.835Z,60.25
2022-09-23T06:35:47.569Z,59.53
2022-09-23T06:38:56.390Z,58.75
2022-09-23T06:42:00.340Z,58.15
2022-09-23T06:45:03.171Z,57.34
2022-09-23T06:48:08.283Z,57.43
2022-09-23T06:51:19.058Z,57.27
2022-09-23T06:54:21.695Z,55.35
2022-09-23T06:57:25.662Z,56.74
2022-09-23T07:00:29.129Z,55.48
2022-09-23T07:03:32.116Z,54.87
2022-09-23T07:06:34.744Z,53.49
2022-09-23T07:09:37.751Z,53.48
2022-09-23T07:12:42.182Z,53.28
2022-09-23T07:15:50.700Z,53.82
2022-09-23T07:18:53.560Z,52.60
2022-09-23T07:21:57.007Z,51.06
2022-09-23T07:24:59.764Z,50.12
2022-09-23T07:28:04.035Z,48.82
2022-09-23T07:31:09.785Z,48.98
2022-09-23T07:34:12.815Z,50.11
2022-09-23T07:37:16.481Z,49.67
2022-09-23T07:40:19.299Z,49.91
2022-09-23T07:43:23.477Z,50.52
2022-09-23T07:46:28.146Z,48.31
2022-09-23T07:49:30.772Z,46.46
2022-09-23T07:52:33.420Z,48.29
2022-09-23T07:55:36.656Z,49.28
2022-09-23T07:58:40.549Z,49.52
2022-09-23T08:01:46.307Z,48.81
2022-09-23T08:04:50.335Z,48.85
2022-09-23T08:07:53.025Z,47.81
2022-09-23T08:11:02.579Z,47.55
2022-09-23T08:14:08.611Z,48.08
2022-09-23T08:17:12.952Z,47.66
2022-09-23T08:20:35.630Z,46.94
2022-09-23T08:23:38.261Z,45.44
2022-09-23T08:26:40.851Z,47.13
2022-09-23T08:29:44.786Z,47.17
2022-09-23T08:32:51.403Z,45.83
2022-09-23T08:35:59.253Z,47.33
2022-09-23T08:39:01.947Z,46.84
2022-09-23T08:42:17.558Z,48.42
2022-09-23T08:45:24.318Z,49.14
2022-09-23T08:48:30.622Z,49.04
2022-09-23T08:51:40.369Z,48.84
2022-09-23T08:54:44.656Z,48.67
2022-09-23T09:01:34.655Z,47.13
2022-09-23T09:04:44.482Z,48.48
2022-09-23T09:07:47.368Z,46.84
2022-09-23T09:10:50.436Z,48.32
2022-09-23T09:14:02.393Z,46.09
2022-09-23T09:17:10.640Z,47.36
2022-09-23T09:20:23.367Z,46.04
2022-09-23T09:23:34.826Z,46.00
2022-09-23T09:26:41.008Z,46.53
2022-09-23T09:29:49.918Z,46.32
2022-09-23T09:33:00.967Z,44.96
2022-09-23T09:36:16.132Z,45.50
2022-09-23T09:39:22.891Z,43.84
2022-09-23T09:42:39.095Z,44.42
2022-09-23T09:45:59.213Z,40.36
2022-09-23T09:49:09.407Z,40.18
2022-09-23T09:52:14.109Z,39.96
2022-09-23T09:55:26.355Z,38.69
2022-09-23T09:58:33.511Z,39.23
2022-09-23T10:01:36.847Z,36.71
2022-09-23T10:04:41.785Z,37.44
2022-09-23T10:07:44.355Z,35.77
2022-09-23T10:10:55.009Z,35.72
2022-09-23T10:14:10.982Z,34.75
2022-09-23T10:17:20.488Z,34.85
2022-09-23T10:20:24.833Z,35.36
2022-09-23T10:23:33.216Z,35.28
2022-09-23T10:26:43.218Z,34.44
2022-09-23T10:29:51.759Z,34.18
2022-09-23T10:32:57.126Z,34.64
2022-09-23T10:36:01.646Z,33.86
2022-09-23T10:39:23.766Z,33.42
2022-09-23T10:43:01.125Z,33.34
2022-09-23T10:46:24.576Z,32.99
2022-09-23T10:49:43.832Z,32.15
2022-09-23T10:52:57.440Z,31.98
2022-09-23T10:56:16.792Z,33.88
2022-09-23T10:59:50.213Z,33.10
2022-09-23T11:03:17.820Z,33.72
2022-09-23T11:06:26.869Z,33.75
2022-09-23T11:09:41.333Z,33.84
2022-09-23T11:12:53.916Z,34.33
2022-09-23T11:16:04.646Z,34.24
2022-09-23T11:19:23.489Z,34.02
2022-09-23T11:22:43.875Z,32.45
2022-09-23T11:25:56.016Z,32.05
2022-09-23T11:29:14.565Z,31.79
2022-09-23T11:32:35.529Z,33.45
2022-09-23T11:35:45.954Z,31.75
2022-09-23T11:38:52.372Z,31.55
2022-09-23T11:42:00.767Z,31.31
2022-09-23T11:45:10.865Z,31.21
2022-09-23T11:48:18.207Z,31.09
2022-09-23T11:51:25.679Z,31.31
2022-09-23T11:54:32.878Z,31.77
2022-09-23T11:57:48.936Z,30.22
2022-09-23T12:01:01.310Z,30.54
2022-09-23T12:04:18.609Z,31.44
2022-09-23T12:07:30.099Z,31.16
2022-09-23T12:10:44.851Z,29.41
2022-09-23T12:13:56.402Z,29.68
2022-09-23T12:17:16.110Z,31.02
2022-09-23T12:20:42.940Z,30.90
2022-09-23T12:24:03.100Z,31.04
2022-09-23T12:27:10.985Z,30.54
2022-09-23T12:30:20.284Z,30.66
2022-09-23T12:33:26.603Z,31.04
2022-09-23T12:36:34.730Z,31.15
2022-09-23T12:39:39.256Z,30.84
2022-09-23T12:42:46.115Z,31.16
2022-09-23T12:45:50.813Z,31.50
2022-09-23T12:49:02.231Z,31.63
2022-09-23T12:52:25.071Z,30.88
2022-09-23T12:55:51.704Z,32.06
2022-09-23T12:59:14.197Z,30.84
2022-09-23T13:02:28.556Z,30.48
2022-09-23T13:05:57.107Z,30.85
2022-09-23T13:09:02.590Z,29.91
2022-09-23T13:12:09.667Z,29.96
2022-09-23T13:15:21.426Z,31.13
2022-09-23T13:18:59.725Z,31.42
2022-09-23T13:22:09.398Z,32.23
2022-09-23T13:25:20.834Z,31.28
2022-09-23T13:28:31.047Z,31.82
2022-09-23T13:31:35.354Z,32.15
2022-09-23T13:34:41.496Z,32.30
2022-09-23T13:37:47.695Z,32.50
2022-09-23T13:40:50.873Z,31.85
2022-09-23T13:43:58.504Z,31.63
2022-09-23T13:47:03.782Z,31.31
2022-09-23T13:50:17.501Z,31.66
2022-09-23T13:53:25.424Z,32.46
2022-09-23T13:56:30.405Z,32.73
2022-09-23T13:59:39.334Z,32.30
2022-09-23T14:02:43.395Z,33.37
2022-09-23T14:05:49.124Z,32.78
2022-09-23T14:08:51.829Z,32.79
2022-09-23T14:11:57.157Z,33.37
2022-09-23T14:14:59.788Z,33.02
2022-09-23T14:18:07.185Z,33.41
2022-09-23T14:21:30.356Z,34.50
2022-09-23T14:24:35.572Z,34.27
2022-09-23T14:27:39.685Z,34.07
2022-09-23T14:30:44.022Z,34.29
2022-09-23T14:33:46.893Z,33.85
2022-09-23T14:37:09.391Z,34.16
2022-09-23T14:40:17.892Z,35.48
2022-09-23T14:43:25.120Z,34.99
2022-09-23T14:46:29.341Z,35.34
2022-09-23T14:49:35.429Z,35.93
2022-09-23T14:52:48.951Z,35.93
2022-09-23T14:55:57.388Z,36.40
2022-09-23T14:59:01.683Z,37.29
2022-09-23T15:02:28.999Z,37.39
2022-09-23T15:05:40.309Z,36.19
2022-09-23T15:08:46.509Z,36.97
2022-09-23T15:11:49.144Z,37.13
2022-09-23T15:14:54.969Z,38.22
2022-09-23T15:18:05.760Z,38.27
2022-09-23T15:21:11.529Z,38.21
2022-09-23T15:24:39.188Z,38.27
2022-09-23T15:27:42.070Z,38.48
2022-09-23T15:30:45.311Z,38.87
2022-09-23T15:33:48.672Z,40.71
2022-09-23T15:36:51.300Z,43.45
2022-09-23T15:39:55.538Z,45.32
2022-09-23T15:43:00.650Z,46.67
2022-09-23T15:46:09.253Z,47.16
2022-09-23T15:49:23.057Z,48.10
2022-09-23T15:52:26.511Z,48.03
2022-09-23T15:55:31.564Z,48.56
2022-09-23T15:58:34.461Z,48.75
2022-09-23T16:01:38.423Z,49.08
2022-09-23T16:04:42.075Z,49.89
2022-09-23T16:07:45.303Z,50.54
2022-09-23T16:10:49.323Z,50.59
2022-09-23T16:13:52.238Z,50.91
2022-09-23T16:16:54.931Z,51.47
2022-09-23T16:19:57.695Z,52.34
2022-09-23T16:23:03.183Z,52.83
2022-09-23T16:26:09.553Z,53.76
2022-09-23T16:29:12.442Z,54.64
2022-09-23T16:32:18.900Z,55.33
2022-09-23T16:35:26.646Z,55.19
2022-09-23T16:38:29.939Z,55.31
2022-09-23T16:41:34.320Z,55.57
2022-09-23T16:44:37.391Z,55.90
2022-09-23T16:47:44.345Z,56.44
2022-09-23T16:50:47.654Z,56.46
2022-09-23T16:53:51.604Z,56.78
2022-09-23T16:56:55.503Z,57.84
2022-09-23T17:00:16.150Z,57.64
2022-09-23T17:03:36.247Z,58.31
2022-09-23T17:06:44.183Z,58.48
2022-09-23T17:09:46.916Z,58.39
2022-09-23T17:12:52.632Z,59.07
2022-09-23T17:15:55.646Z,59.40
2022-09-23T17:18:58.754Z,59.35
2022-09-23T17:22:01.305Z,59.94
2022-09-23T17:25:04.397Z,60.07
2022-09-23T17:28:08.453Z,60.51
2022-09-23T17:31:11.244Z,60.57
2022-09-23T17:34:13.832Z,60.72
2022-09-23T17:37:16.920Z,60.61
2022-09-23T17:40:19.538Z,61.11
2022-09-23T17:43:25.038Z,61.02
2022-09-23T17:46:29.131Z,61.31
2022-09-23T17:49:35.428Z,61.31
2022-09-23T17:52:38.230Z,61.30
2022-09-23T17:55:40.929Z,61.52
2022-09-23T17:58:45.960Z,61.35
2022-09-23T18:01:48.618Z,61.27
2022-09-23T18:04:51.248Z,61.57
2022-09-23T18:07:53.983Z,60.77
2022-09-23T18:10:56.541Z,61.71
2022-09-23T18:14:02.125Z,61.55
2022-09-23T18:17:04.721Z,62.59
2022-09-23T18:20:09.174Z,61.79
2022-09-23T18:23:12.153Z,61.97
2022-09-23T18:26:16.175Z,61.84
2022-09-23T18:29:20.292Z,61.89
2022-09-23T18:32:22.887Z,61.93
2022-09-23T18:35:25.441Z,62.33
2022-09-23T18:38:28.283Z,62.49
2022-09-23T18:41:31.340Z,63.45
2022-09-23T18:44:35.711Z,62.75
2022-09-23T18:48:10.929Z,62.73
2022-09-23T18:51:29.278Z,63.05
2022-09-23T18:54:32.044Z,63.55
2022-09-23T18:57:34.967Z,63.46
2022-09-23T19:00:39.446Z,63.72
2022-09-23T19:03:42.441Z,63.87
2022-09-23T19:06:45.355Z,66.47
2022-09-23T19:09:48.111Z,64.44
2022-09-23T19:12:50.991Z,63.92
2022-09-23T19:15:55.110Z,64.88
2022-09-23T19:18:57.719Z,63.98
2022-09-23T19:22:01.343Z,64.68
2022-09-23T19:25:04.359Z,64.34
2022-09-23T19:28:08.347Z,63.23
2022-09-23T19:31:13.959Z,63.00
2022-09-23T19:34:18.590Z,63.86
2022-09-23T19:37:21.251Z,63.57
2022-09-23T19:40:23.938Z,64.28
2022-09-23T19:43:28.201Z,63.88
2022-09-23T19:46:33.359Z,63.59
2022-09-23T19:49:36.184Z,63.55
2022-09-23T19:52:39.157Z,63.87
2022-09-23T19:55:42.860Z,63.67
2022-09-23T19:58:47.219Z,63.50
2022-09-23T20:01:51.212Z,62.55
2022-09-23T20:04:54.171Z,63.93
2022-09-23T20:07:58.917Z,63.59
2022-09-23T20:11:11.264Z,63.56
2022-09-23T20:14:13.907Z,63.24
2022-09-23T20:17:19.215Z,63.60
2022-09-23T20:20:21.784Z,63.72
2022-09-23T20:23:24.575Z,63.50
2022-09-23T20:26:44.766Z,62.93
2022-09-23T20:29:48.631Z,63.16
2022-09-23T20:32:52.568Z,63.25
2022-09-23T20:35:57.125Z,63.19
2022-09-23T20:39:01.397Z,63.08
2022-09-23T20:42:04.407Z,63.15
2022-09-23T20:45:08.238Z,63.06
2022-09-23T20:48:12.967Z,63.07
2022-09-23T20:51:15.779Z,63.74
2022-09-23T20:54:19.542Z,63.89
2022-09-23T20:57:22.097Z,63.76
2022-09-23T21:00:24.846Z,62.42
2022-09-23T21:03:29.365Z,63.57
2022-09-23T21:06:32.688Z,63.78
2022-09-23T21:09:35.303Z,63.47
2022-09-23T21:12:38.006Z,62.87
2022-09-23T21:15:41.892Z,63.60
2022-09-23T21:18:46.898Z,63.78
2022-09-23T21:21:49.515Z,63.47
2022-09-23T21:25:26.270Z,62.76
2022-09-23T21:28:15.756Z,63.46
2022-09-23T21:31:23.789Z,63.56
2022-09-23T21:34:30.101Z,63.11
2022-09-23T21:37:32.951Z,62.86
2022-09-23T21:40:53.393Z,63.07
2022-09-23T21:43:57.784Z,63.15
2022-09-23T21:47:00.469Z,63.24
2022-09-23T21:50:05.172Z,62.83
2022-09-23T21:53:08.805Z,63.44
2022-09-23T21:56:18.065Z,63.25
2022-09-23T21:59:23.056Z,63.26
2022-09-23T22:02:25.775Z,63.14
2022-09-23T22:05:29.759Z,63.18
2022-09-23T22:08:37.054Z,63.79
2022-09-23T22:11:58.601Z,63.86
2022-09-23T22:15:01.191Z,63.54
2022-09-23T22:18:05.559Z,63.76
2022-09-23T22:21:09.954Z,63.81
2022-09-23T22:24:13.803Z,63.84
2022-09-23T22:27:18.905Z,64.01
2022-09-23T22:30:38.975Z,63.18
2022-09-23T22:33:41.701Z,64.35
2022-09-23T22:36:45.672Z,64.39
2022-09-23T22:39:48.684Z,64.71
2022-09-23T22:42:51.503Z,63.84
2022-09-23T22:45:54.110Z,64.77
2022-09-23T22:48:56.979Z,63.68
2022-09-23T22:52:01.415Z,64.32
2022-09-23T22:55:04.620Z,64.58
2022-09-23T22:58:30.817Z,64.40
2022-09-23T23:01:30.656Z,64.49
2022-09-23T23:04:33.865Z,64.68
2022-09-23T23:07:37.966Z,64.34
2022-09-23T23:10:41.017Z,64.12
2022-09-23T23:13:44.255Z,64.87
2022-09-23T23:16:47.331Z,64.74
2022-09-23T23:19:50.725Z,63.83
2022-09-23T23:22:55.053Z,65.02
2022-09-23T23:25:57.871Z,64.51
2022-09-23T23:29:01.517Z,64.49
2022-09-23T23:32:05.186Z,64.78
2022-09-23T23:35:08.962Z,64.48
2022-09-23T23:38:13.018Z,64.19
2022-09-23T23:41:17.638Z,63.96
2022-09-23T23:44:20.375Z,64.54
2022-09-23T23:47:23.423Z,64.85
2022-09-23T23:50:26.462Z,64.94
2022-09-23T23:53:33.855Z,64.59
2022-09-23T23:56:36.411Z,65.22
2022-09-23T23:59:39.118Z,65.21
